sensor_id;sensor_type;location;lat;lon;timestamp;temperature;humidity
41816;DHT22;27814;53.452;-6.180;2023-02-03T00:01:55;12.50;99.90
41816;DHT22;27814;53.452;-6.180;2023-02-03T00:04:23;12.50;99.90
41816;DHT22;27814;53.452;-6.180;2023-02-03T00:06:52;12.50;99.90
41816;DHT22;27814;53.452;-6.180;2023-02-03T00:09:20;12.60;99.90
41816;DHT22;27814;53.452;-6.180;2023-02-03T00:11:50;12.60;99.90
41816;DHT22;27814;53.452;-6.180;2023-02-03T00:14:18;12.60;99.90
41816;DHT22;27814;53.452;-6.180;2023-02-03T00:16:46;12.50;99.90
41816;DHT22;27814;53.452;-6.180;2023-02-03T00:19:15;12.50;99.90
41816;DHT22;27814;53.452;-6.180;2023-02-03T00:21:43;12.60;99.90
41816;DHT22;27814;53.452;-6.180;2023-02-03T00:24:11;12.60;99.90
41816;DHT22;27814;53.452;-6.180;2023-02-03T00:26:40;12.60;99.90
41816;DHT22;27814;53.452;-6.180;2023-02-03T00:29:11;12.60;99.90
41816;DHT22;27814;53.452;-6.180;2023-02-03T00:31:39;12.50;99.90
41816;DHT22;27814;53.452;-6.180;2023-02-03T00:34:08;12.50;99.90
41816;DHT22;27814;53.452;-6.180;2023-02-03T00:36:36;12.50;99.90
41816;DHT22;27814;53.452;-6.180;2023-02-03T00:39:07;12.50;99.90
41816;DHT22;27814;53.452;-6.180;2023-02-03T00:41:35;12.50;99.90
41816;DHT22;27814;53.452;-6.180;2023-02-03T00:44:03;12.60;99.90
41816;DHT22;27814;53.452;-6.180;2023-02-03T00:46:33;12.60;99.90
41816;DHT22;27814;53.452;-6.180;2023-02-03T00:49:03;12.60;99.90
41816;DHT22;27814;53.452;-6.180;2023-02-03T00:51:32;12.60;99.90
41816;DHT22;27814;53.452;-6.180;2023-02-03T00:54:00;12.60;99.90
41816;DHT22;27814;53.452;-6.180;2023-02-03T00:56:28;12.60;99.90
41816;DHT22;27814;53.452;-6.180;2023-02-03T00:58:57;12.60;99.90
41816;DHT22;27814;53.452;-6.180;2023-02-03T01:01:25;12.60;99.90
41816;DHT22;27814;53.452;-6.180;2023-02-03T01:03:55;12.60;99.90
41816;DHT22;27814;53.452;-6.180;2023-02-03T01:06:24;12.50;99.90
41816;DHT22;27814;53.452;-6.180;2023-02-03T01:08:53;12.50;99.90
41816;DHT22;27814;53.452;-6.180;2023-02-03T01:11:23;12.50;99.90
41816;DHT22;27814;53.452;-6.180;2023-02-03T01:13:54;12.50;99.90
41816;DHT22;27814;53.452;-6.180;2023-02-03T01:16:23;12.40;99.90
41816;DHT22;27814;53.452;-6.180;2023-02-03T01:18:56;12.40;99.90
41816;DHT22;27814;53.452;-6.180;2023-02-03T01:21:25;12.40;99.90
41816;DHT22;27814;53.452;-6.180;2023-02-03T01:23:53;12.40;99.90
41816;DHT22;27814;53.452;-6.180;2023-02-03T01:26:22;12.30;99.90
41816;DHT22;27814;53.452;-6.180;2023-02-03T01:28:51;12.30;99.90
41816;DHT22;27814;53.452;-6.180;2023-02-03T01:31:22;12.30;99.90
41816;DHT22;27814;53.452;-6.180;2023-02-03T01:33:51;12.30;99.90
41816;DHT22;27814;53.452;-6.180;2023-02-03T01:36:23;12.30;99.90
41816;DHT22;27814;53.452;-6.180;2023-02-03T01:38:52;12.30;99.90
41816;DHT22;27814;53.452;-6.180;2023-02-03T01:41:23;12.30;99.90
41816;DHT22;27814;53.452;-6.180;2023-02-03T01:43:53;12.40;99.90
41816;DHT22;27814;53.452;-6.180;2023-02-03T01:46:26;12.30;99.90
41816;DHT22;27814;53.452;-6.180;2023-02-03T01:49:02;12.30;99.90
41816;DHT22;27814;53.452;-6.180;2023-02-03T01:51:33;12.30;99.90
41816;DHT22;27814;53.452;-6.180;2023-02-03T01:54:03;12.30;99.90
41816;DHT22;27814;53.452;-6.180;2023-02-03T01:56:34;12.30;99.90
41816;DHT22;27814;53.452;-6.180;2023-02-03T01:59:04;12.30;99.90
41816;DHT22;27814;53.452;-6.180;2023-02-03T02:01:33;12.30;99.90
41816;DHT22;27814;53.452;-6.180;2023-02-03T02:04:03;12.40;99.90
41816;DHT22;27814;53.452;-6.180;2023-02-03T02:06:34;12.40;99.90
41816;DHT22;27814;53.452;-6.180;2023-02-03T02:09:03;12.40;99.90
41816;DHT22;27814;53.452;-6.180;2023-02-03T02:11:31;12.40;99.90
41816;DHT22;27814;53.452;-6.180;2023-02-03T02:14:01;12.40;99.90
41816;DHT22;27814;53.452;-6.180;2023-02-03T02:16:37;12.40;99.90
41816;DHT22;27814;53.452;-6.180;2023-02-03T02:19:56;12.40;99.90
41816;DHT22;27814;53.452;-6.180;2023-02-03T02:22:34;12.40;99.90
41816;DHT22;27814;53.452;-6.180;2023-02-03T02:25:40;12.40;99.90
41816;DHT22;27814;53.452;-6.180;2023-02-03T02:28:52;12.40;99.90
41816;DHT22;27814;53.452;-6.180;2023-02-03T02:31:54;12.40;99.90
41816;DHT22;27814;53.452;-6.180;2023-02-03T02:34:30;12.40;99.90
41816;DHT22;27814;53.452;-6.180;2023-02-03T02:37:06;12.40;99.90
41816;DHT22;27814;53.452;-6.180;2023-02-03T02:39:40;12.40;99.90
41816;DHT22;27814;53.452;-6.180;2023-02-03T02:42:15;12.40;99.90
41816;DHT22;27814;53.452;-6.180;2023-02-03T02:44:49;12.50;99.90
41816;DHT22;27814;53.452;-6.180;2023-02-03T02:47:21;12.40;99.90
41816;DHT22;27814;53.452;-6.180;2023-02-03T02:49:55;12.50;99.90
41816;DHT22;27814;53.452;-6.180;2023-02-03T02:52:29;12.40;99.90
41816;DHT22;27814;53.452;-6.180;2023-02-03T02:55:07;12.50;99.90
41816;DHT22;27814;53.452;-6.180;2023-02-03T02:57:38;12.50;99.90
41816;DHT22;27814;53.452;-6.180;2023-02-03T03:00:08;12.50;99.90
41816;DHT22;27814;53.452;-6.180;2023-02-03T03:02:37;12.50;99.90
41816;DHT22;27814;53.452;-6.180;2023-02-03T03:05:08;12.50;99.90
41816;DHT22;27814;53.452;-6.180;2023-02-03T03:07:41;12.50;99.90
41816;DHT22;27814;53.452;-6.180;2023-02-03T03:10:14;12.50;99.90
41816;DHT22;27814;53.452;-6.180;2023-02-03T03:12:47;12.50;99.90
41816;DHT22;27814;53.452;-6.180;2023-02-03T03:15:20;12.50;99.90
41816;DHT22;27814;53.452;-6.180;2023-02-03T03:17:56;12.60;99.90
41816;DHT22;27814;53.452;-6.180;2023-02-03T03:20:26;12.50;99.90
41816;DHT22;27814;53.452;-6.180;2023-02-03T03:22:57;12.60;99.90
41816;DHT22;27814;53.452;-6.180;2023-02-03T03:25:30;12.50;99.90
41816;DHT22;27814;53.452;-6.180;2023-02-03T03:28:03;12.60;99.90
41816;DHT22;27814;53.452;-6.180;2023-02-03T03:30:35;12.50;99.90
41816;DHT22;27814;53.452;-6.180;2023-02-03T03:33:06;12.50;99.90
41816;DHT22;27814;53.452;-6.180;2023-02-03T03:35:40;12.50;99.90
41816;DHT22;27814;53.452;-6.180;2023-02-03T03:38:14;12.50;99.90
41816;DHT22;27814;53.452;-6.180;2023-02-03T03:40:50;12.50;99.90
41816;DHT22;27814;53.452;-6.180;2023-02-03T03:43:22;12.50;99.90
41816;DHT22;27814;53.452;-6.180;2023-02-03T03:45:56;12.50;99.90
41816;DHT22;27814;53.452;-6.180;2023-02-03T03:48:28;12.60;99.90
41816;DHT22;27814;53.452;-6.180;2023-02-03T03:51:02;12.60;99.90
41816;DHT22;27814;53.452;-6.180;2023-02-03T03:53:33;12.60;99.90
41816;DHT22;27814;53.452;-6.180;2023-02-03T03:56:06;12.60;99.90
41816;DHT22;27814;53.452;-6.180;2023-02-03T03:58:37;12.60;99.90
41816;DHT22;27814;53.452;-6.180;2023-02-03T04:01:07;12.60;99.90
41816;DHT22;27814;53.452;-6.180;2023-02-03T04:03:40;12.60;99.90
41816;DHT22;27814;53.452;-6.180;2023-02-03T04:06:11;12.60;99.90
41816;DHT22;27814;53.452;-6.180;2023-02-03T04:08:39;12.50;99.90
41816;DHT22;27814;53.452;-6.180;2023-02-03T04:11:08;12.50;99.90
41816;DHT22;27814;53.452;-6.180;2023-02-03T04:13:36;12.50;99.90
41816;DHT22;27814;53.452;-6.180;2023-02-03T04:16:05;12.50;99.90
41816;DHT22;27814;53.452;-6.180;2023-02-03T04:18:33;12.50;99.90
41816;DHT22;27814;53.452;-6.180;2023-02-03T04:21:03;12.50;99.90
41816;DHT22;27814;53.452;-6.180;2023-02-03T04:23:32;12.40;99.90
41816;DHT22;27814;53.452;-6.180;2023-02-03T04:26:00;12.50;99.90
41816;DHT22;27814;53.452;-6.180;2023-02-03T04:28:29;12.40;99.90
41816;DHT22;27814;53.452;-6.180;2023-02-03T04:30:59;12.50;99.90
41816;DHT22;27814;53.452;-6.180;2023-02-03T04:33:27;12.40;99.90
41816;DHT22;27814;53.452;-6.180;2023-02-03T04:35:56;12.40;99.90
41816;DHT22;27814;53.452;-6.180;2023-02-03T04:38:26;12.40;99.90
41816;DHT22;27814;53.452;-6.180;2023-02-03T04:40:54;12.40;99.90
41816;DHT22;27814;53.452;-6.180;2023-02-03T04:43:22;12.40;99.90
41816;DHT22;27814;53.452;-6.180;2023-02-03T04:45:51;12.40;99.90
41816;DHT22;27814;53.452;-6.180;2023-02-03T04:48:19;12.40;99.90
41816;DHT22;27814;53.452;-6.180;2023-02-03T04:50:48;12.40;99.90
41816;DHT22;27814;53.452;-6.180;2023-02-03T04:53:16;12.40;99.90
41816;DHT22;27814;53.452;-6.180;2023-02-03T04:55:47;12.40;99.90
41816;DHT22;27814;53.452;-6.180;2023-02-03T04:58:15;12.40;99.90
41816;DHT22;27814;53.452;-6.180;2023-02-03T05:00:44;12.40;99.90
41816;DHT22;27814;53.452;-6.180;2023-02-03T05:03:12;12.40;99.90
41816;DHT22;27814;53.452;-6.180;2023-02-03T05:05:40;12.30;99.90
41816;DHT22;27814;53.452;-6.180;2023-02-03T05:08:08;12.40;99.90
41816;DHT22;27814;53.452;-6.180;2023-02-03T05:10:37;12.40;99.90
41816;DHT22;27814;53.452;-6.180;2023-02-03T05:13:07;12.30;99.90
41816;DHT22;27814;53.452;-6.180;2023-02-03T05:15:35;12.30;99.90
41816;DHT22;27814;53.452;-6.180;2023-02-03T05:18:03;12.20;99.90
41816;DHT22;27814;53.452;-6.180;2023-02-03T05:20:32;12.20;99.90
41816;DHT22;27814;53.452;-6.180;2023-02-03T05:23:00;12.20;99.90
41816;DHT22;27814;53.452;-6.180;2023-02-03T05:25:28;12.30;99.90
41816;DHT22;27814;53.452;-6.180;2023-02-03T05:27:57;12.30;99.90
41816;DHT22;27814;53.452;-6.180;2023-02-03T05:30:27;12.30;99.90
41816;DHT22;27814;53.452;-6.180;2023-02-03T05:32:55;12.30;99.90
41816;DHT22;27814;53.452;-6.180;2023-02-03T05:35:24;12.30;99.90
41816;DHT22;27814;53.452;-6.180;2023-02-03T05:37:52;12.30;99.90
41816;DHT22;27814;53.452;-6.180;2023-02-03T05:40:21;12.30;99.90
41816;DHT22;27814;53.452;-6.180;2023-02-03T05:43:06;12.30;99.90
41816;DHT22;27814;53.452;-6.180;2023-02-03T05:45:37;12.30;99.90
41816;DHT22;27814;53.452;-6.180;2023-02-03T05:48:05;12.40;99.90
41816;DHT22;27814;53.452;-6.180;2023-02-03T05:50:34;12.40;99.90
41816;DHT22;27814;53.452;-6.180;2023-02-03T05:53:05;12.40;99.90
41816;DHT22;27814;53.452;-6.180;2023-02-03T05:55:34;12.40;99.90
41816;DHT22;27814;53.452;-6.180;2023-02-03T05:58:03;12.40;99.90
41816;DHT22;27814;53.452;-6.180;2023-02-03T06:00:32;12.40;99.90
41816;DHT22;27814;53.452;-6.180;2023-02-03T06:03:02;12.40;99.90
41816;DHT22;27814;53.452;-6.180;2023-02-03T06:05:33;12.40;99.90
41816;DHT22;27814;53.452;-6.180;2023-02-03T06:08:01;12.40;99.90
41816;DHT22;27814;53.452;-6.180;2023-02-03T06:10:29;12.40;99.90
41816;DHT22;27814;53.452;-6.180;2023-02-03T06:12:58;12.30;99.90
41816;DHT22;27814;53.452;-6.180;2023-02-03T06:15:26;12.30;99.90
41816;DHT22;27814;53.452;-6.180;2023-02-03T06:17:55;12.30;99.90
41816;DHT22;27814;53.452;-6.180;2023-02-03T06:20:24;12.30;99.90
41816;DHT22;27814;53.452;-6.180;2023-02-03T06:22:53;12.30;99.90
41816;DHT22;27814;53.452;-6.180;2023-02-03T06:25:21;12.30;99.90
41816;DHT22;27814;53.452;-6.180;2023-02-03T06:27:50;12.30;99.90
41816;DHT22;27814;53.452;-6.180;2023-02-03T06:30:19;12.30;99.90
41816;DHT22;27814;53.452;-6.180;2023-02-03T06:32:49;12.30;99.90
41816;DHT22;27814;53.452;-6.180;2023-02-03T06:35:18;12.30;99.90
41816;DHT22;27814;53.452;-6.180;2023-02-03T06:37:47;12.30;99.90
41816;DHT22;27814;53.452;-6.180;2023-02-03T06:40:16;12.30;99.90
41816;DHT22;27814;53.452;-6.180;2023-02-03T06:42:46;12.30;99.90
41816;DHT22;27814;53.452;-6.180;2023-02-03T06:45:15;12.30;99.90
41816;DHT22;27814;53.452;-6.180;2023-02-03T06:47:44;12.30;99.90
41816;DHT22;27814;53.452;-6.180;2023-02-03T06:50:14;12.30;99.90
41816;DHT22;27814;53.452;-6.180;2023-02-03T06:52:42;12.40;99.90
41816;DHT22;27814;53.452;-6.180;2023-02-03T06:55:12;12.30;99.90
41816;DHT22;27814;53.452;-6.180;2023-02-03T06:57:44;12.30;99.90
41816;DHT22;27814;53.452;-6.180;2023-02-03T07:00:14;12.30;99.90
41816;DHT22;27814;53.452;-6.180;2023-02-03T07:02:55;12.30;99.90
41816;DHT22;27814;53.452;-6.180;2023-02-03T07:05:24;12.30;99.90
41816;DHT22;27814;53.452;-6.180;2023-02-03T07:07:54;12.30;99.90
41816;DHT22;27814;53.452;-6.180;2023-02-03T07:10:24;12.30;99.90
41816;DHT22;27814;53.452;-6.180;2023-02-03T07:12:53;12.40;99.90
41816;DHT22;27814;53.452;-6.180;2023-02-03T07:15:21;12.40;99.90
41816;DHT22;27814;53.452;-6.180;2023-02-03T07:17:49;12.40;99.90
41816;DHT22;27814;53.452;-6.180;2023-02-03T07:20:21;12.30;99.90
41816;DHT22;27814;53.452;-6.180;2023-02-03T07:22:54;12.30;99.90
41816;DHT22;27814;53.452;-6.180;2023-02-03T07:25:24;12.30;99.90
41816;DHT22;27814;53.452;-6.180;2023-02-03T07:27:53;12.30;99.90
41816;DHT22;27814;53.452;-6.180;2023-02-03T07:30:21;12.30;99.90
41816;DHT22;27814;53.452;-6.180;2023-02-03T07:32:51;12.20;99.90
41816;DHT22;27814;53.452;-6.180;2023-02-03T07:35:19;12.20;99.90
41816;DHT22;27814;53.452;-6.180;2023-02-03T07:37:48;12.10;99.90
41816;DHT22;27814;53.452;-6.180;2023-02-03T07:40:17;12.10;99.90
41816;DHT22;27814;53.452;-6.180;2023-02-03T07:42:48;12.10;99.90
41816;DHT22;27814;53.452;-6.180;2023-02-03T07:45:17;12.10;99.90
41816;DHT22;27814;53.452;-6.180;2023-02-03T07:47:46;12.10;99.90
41816;DHT22;27814;53.452;-6.180;2023-02-03T07:50:14;12.10;99.90
41816;DHT22;27814;53.452;-6.180;2023-02-03T07:52:42;12.10;99.90
41816;DHT22;27814;53.452;-6.180;2023-02-03T07:55:11;12.00;99.90
41816;DHT22;27814;53.452;-6.180;2023-02-03T07:57:39;12.00;99.90
41816;DHT22;27814;53.452;-6.180;2023-02-03T08:00:13;12.00;99.90
41816;DHT22;27814;53.452;-6.180;2023-02-03T08:02:43;12.00;99.90
41816;DHT22;27814;53.452;-6.180;2023-02-03T08:05:12;12.00;99.90
41816;DHT22;27814;53.452;-6.180;2023-02-03T08:07:41;12.00;99.90
41816;DHT22;27814;53.452;-6.180;2023-02-03T08:10:10;12.00;99.90
41816;DHT22;27814;53.452;-6.180;2023-02-03T08:12:39;12.00;99.90
41816;DHT22;27814;53.452;-6.180;2023-02-03T08:15:13;12.00;99.90
41816;DHT22;27814;53.452;-6.180;2023-02-03T08:17:41;12.00;99.90
41816;DHT22;27814;53.452;-6.180;2023-02-03T08:20:11;11.90;99.90
41816;DHT22;27814;53.452;-6.180;2023-02-03T08:22:39;11.90;99.90
41816;DHT22;27814;53.452;-6.180;2023-02-03T08:25:08;11.90;99.90
41816;DHT22;27814;53.452;-6.180;2023-02-03T08:27:37;11.90;99.90
41816;DHT22;27814;53.452;-6.180;2023-02-03T08:30:08;12.00;99.90
41816;DHT22;27814;53.452;-6.180;2023-02-03T08:32:38;11.90;99.90
41816;DHT22;27814;53.452;-6.180;2023-02-03T08:35:07;12.00;99.90
41816;DHT22;27814;53.452;-6.180;2023-02-03T08:37:36;12.00;99.90
41816;DHT22;27814;53.452;-6.180;2023-02-03T08:40:05;12.00;99.90
41816;DHT22;27814;53.452;-6.180;2023-02-03T08:42:34;12.10;99.90
41816;DHT22;27814;53.452;-6.180;2023-02-03T08:45:03;12.10;99.90
41816;DHT22;27814;53.452;-6.180;2023-02-03T08:47:31;12.10;99.90
41816;DHT22;27814;53.452;-6.180;2023-02-03T08:50:06;12.20;99.90
41816;DHT22;27814;53.452;-6.180;2023-02-03T08:52:35;12.20;99.90
41816;DHT22;27814;53.452;-6.180;2023-02-03T08:55:04;12.20;99.90
41816;DHT22;27814;53.452;-6.180;2023-02-03T08:57:33;12.20;99.90
41816;DHT22;27814;53.452;-6.180;2023-02-03T09:00:03;12.20;99.90
41816;DHT22;27814;53.452;-6.180;2023-02-03T09:02:34;12.30;99.90
41816;DHT22;27814;53.452;-6.180;2023-02-03T09:05:05;12.20;99.90
41816;DHT22;27814;53.452;-6.180;2023-02-03T09:07:33;12.20;99.90
41816;DHT22;27814;53.452;-6.180;2023-02-03T09:10:02;12.20;99.90
41816;DHT22;27814;53.452;-6.180;2023-02-03T09:12:31;12.20;99.90
41816;DHT22;27814;53.452;-6.180;2023-02-03T09:14:59;12.20;99.90
41816;DHT22;27814;53.452;-6.180;2023-02-03T09:17:28;12.20;99.90
41816;DHT22;27814;53.452;-6.180;2023-02-03T09:19:56;12.20;99.90
41816;DHT22;27814;53.452;-6.180;2023-02-03T09:22:26;12.20;99.90
41816;DHT22;27814;53.452;-6.180;2023-02-03T09:24:54;12.20;99.90
41816;DHT22;27814;53.452;-6.180;2023-02-03T09:27:23;12.20;99.90
41816;DHT22;27814;53.452;-6.180;2023-02-03T09:29:51;12.30;99.90
41816;DHT22;27814;53.452;-6.180;2023-02-03T09:32:20;12.30;99.90
41816;DHT22;27814;53.452;-6.180;2023-02-03T09:34:48;12.40;99.90
41816;DHT22;27814;53.452;-6.180;2023-02-03T09:37:16;12.40;99.90
41816;DHT22;27814;53.452;-6.180;2023-02-03T09:39:46;12.40;99.90
41816;DHT22;27814;53.452;-6.180;2023-02-03T09:42:40;12.50;99.90
41816;DHT22;27814;53.452;-6.180;2023-02-03T09:45:18;12.50;99.90
41816;DHT22;27814;53.452;-6.180;2023-02-03T09:47:48;12.60;99.90
41816;DHT22;27814;53.452;-6.180;2023-02-03T09:50:23;12.60;99.90
41816;DHT22;27814;53.452;-6.180;2023-02-03T09:52:53;12.70;99.90
41816;DHT22;27814;53.452;-6.180;2023-02-03T09:55:31;12.70;99.90
41816;DHT22;27814;53.452;-6.180;2023-02-03T09:58:03;12.80;99.90
41816;DHT22;27814;53.452;-6.180;2023-02-03T10:00:35;12.80;99.90
41816;DHT22;27814;53.452;-6.180;2023-02-03T10:03:13;12.80;99.90
41816;DHT22;27814;53.452;-6.180;2023-02-03T10:06:00;12.80;99.90
41816;DHT22;27814;53.452;-6.180;2023-02-03T10:08:39;12.90;99.90
41816;DHT22;27814;53.452;-6.180;2023-02-03T10:11:19;12.90;99.90
41816;DHT22;27814;53.452;-6.180;2023-02-03T10:13:55;12.90;99.90
41816;DHT22;27814;53.452;-6.180;2023-02-03T10:16:42;12.90;99.90
41816;DHT22;27814;53.452;-6.180;2023-02-03T10:19:16;13.00;99.90
41816;DHT22;27814;53.452;-6.180;2023-02-03T10:21:50;13.00;99.90
41816;DHT22;27814;53.452;-6.180;2023-02-03T10:24:25;13.00;99.90
41816;DHT22;27814;53.452;-6.180;2023-02-03T10:26:56;13.10;99.90
41816;DHT22;27814;53.452;-6.180;2023-02-03T10:29:30;13.10;99.90
41816;DHT22;27814;53.452;-6.180;2023-02-03T10:32:01;13.10;99.90
41816;DHT22;27814;53.452;-6.180;2023-02-03T10:34:30;13.10;99.90
41816;DHT22;27814;53.452;-6.180;2023-02-03T10:37:02;13.10;99.90
41816;DHT22;27814;53.452;-6.180;2023-02-03T10:39:38;13.10;99.90
41816;DHT22;27814;53.452;-6.180;2023-02-03T10:42:10;13.10;99.90
41816;DHT22;27814;53.452;-6.180;2023-02-03T10:44:41;13.10;99.90
41816;DHT22;27814;53.452;-6.180;2023-02-03T10:47:19;13.10;99.90
41816;DHT22;27814;53.452;-6.180;2023-02-03T10:49:50;13.20;99.90
41816;DHT22;27814;53.452;-6.180;2023-02-03T10:52:30;13.20;99.90
41816;DHT22;27814;53.452;-6.180;2023-02-03T10:55:04;13.20;99.90
41816;DHT22;27814;53.452;-6.180;2023-02-03T10:57:36;13.30;99.90
41816;DHT22;27814;53.452;-6.180;2023-02-03T11:00:19;13.30;99.90
41816;DHT22;27814;53.452;-6.180;2023-02-03T11:02:55;13.30;99.90
41816;DHT22;27814;53.452;-6.180;2023-02-03T11:05:24;13.30;99.90
41816;DHT22;27814;53.452;-6.180;2023-02-03T11:07:53;13.30;99.90
41816;DHT22;27814;53.452;-6.180;2023-02-03T11:10:31;13.30;99.90
41816;DHT22;27814;53.452;-6.180;2023-02-03T11:13:16;13.30;99.90
41816;DHT22;27814;53.452;-6.180;2023-02-03T11:15:52;13.30;99.90
41816;DHT22;27814;53.452;-6.180;2023-02-03T11:18:31;13.40;99.90
41816;DHT22;27814;53.452;-6.180;2023-02-03T11:21:05;13.40;99.90
41816;DHT22;27814;53.452;-6.180;2023-02-03T11:23:34;13.50;99.90
41816;DHT22;27814;53.452;-6.180;2023-02-03T11:26:11;13.40;99.90
41816;DHT22;27814;53.452;-6.180;2023-02-03T11:28:44;13.50;99.90
41816;DHT22;27814;53.452;-6.180;2023-02-03T11:31:20;13.40;99.90
41816;DHT22;27814;53.452;-6.180;2023-02-03T11:33:53;13.40;99.90
41816;DHT22;27814;53.452;-6.180;2023-02-03T11:36:25;13.50;99.90
41816;DHT22;27814;53.452;-6.180;2023-02-03T11:39:16;13.40;99.90
41816;DHT22;27814;53.452;-6.180;2023-02-03T11:41:45;13.50;99.90
41816;DHT22;27814;53.452;-6.180;2023-02-03T11:44:26;13.50;99.90
41816;DHT22;27814;53.452;-6.180;2023-02-03T11:46:59;13.40;99.90
41816;DHT22;27814;53.452;-6.180;2023-02-03T11:52:59;13.50;99.90
41816;DHT22;27814;53.452;-6.180;2023-02-03T11:55:45;13.50;99.90
41816;DHT22;27814;53.452;-6.180;2023-02-03T12:01:55;13.50;99.90
41816;DHT22;27814;53.452;-6.180;2023-02-03T12:04:47;13.60;99.90
41816;DHT22;27814;53.452;-6.180;2023-02-03T12:07:39;13.60;99.90
41816;DHT22;27814;53.452;-6.180;2023-02-03T12:10:16;13.60;99.90
41816;DHT22;27814;53.452;-6.180;2023-02-03T12:12:51;13.60;99.90
41816;DHT22;27814;53.452;-6.180;2023-02-03T12:15:41;13.60;99.90
41816;DHT22;27814;53.452;-6.180;2023-02-03T12:18:23;13.70;99.90
41816;DHT22;27814;53.452;-6.180;2023-02-03T12:21:06;13.70;99.90
41816;DHT22;27814;53.452;-6.180;2023-02-03T12:23:47;13.80;99.90
41816;DHT22;27814;53.452;-6.180;2023-02-03T12:26:20;13.80;99.90
41816;DHT22;27814;53.452;-6.180;2023-02-03T12:28:57;13.80;99.90
41816;DHT22;27814;53.452;-6.180;2023-02-03T12:31:35;13.90;99.90
41816;DHT22;27814;53.452;-6.180;2023-02-03T12:34:19;13.90;99.90
41816;DHT22;27814;53.452;-6.180;2023-02-03T12:36:54;14.00;99.90
41816;DHT22;27814;53.452;-6.180;2023-02-03T12:39:27;14.10;99.90
41816;DHT22;27814;53.452;-6.180;2023-02-03T12:41:59;14.20;99.90
41816;DHT22;27814;53.452;-6.180;2023-02-03T12:44:30;14.30;99.90
41816;DHT22;27814;53.452;-6.180;2023-02-03T12:47:03;14.40;99.90
41816;DHT22;27814;53.452;-6.180;2023-02-03T12:49:39;14.40;99.90
41816;DHT22;27814;53.452;-6.180;2023-02-03T12:52:16;14.50;99.90
41816;DHT22;27814;53.452;-6.180;2023-02-03T12:54:51;14.50;99.90
41816;DHT22;27814;53.452;-6.180;2023-02-03T12:57:25;14.50;99.90
41816;DHT22;27814;53.452;-6.180;2023-02-03T13:00:10;14.50;99.90
41816;DHT22;27814;53.452;-6.180;2023-02-03T13:02:49;14.50;99.90
41816;DHT22;27814;53.452;-6.180;2023-02-03T13:05:25;14.50;99.90
41816;DHT22;27814;53.452;-6.180;2023-02-03T13:08:04;14.50;99.90
41816;DHT22;27814;53.452;-6.180;2023-02-03T13:10:38;14.50;99.90
41816;DHT22;27814;53.452;-6.180;2023-02-03T13:13:19;14.50;99.90
41816;DHT22;27814;53.452;-6.180;2023-02-03T13:15:52;14.60;99.90
41816;DHT22;27814;53.452;-6.180;2023-02-03T13:18:25;14.60;99.90
41816;DHT22;27814;53.452;-6.180;2023-02-03T13:20:56;14.50;99.90
41816;DHT22;27814;53.452;-6.180;2023-02-03T13:23:25;14.60;99.90
41816;DHT22;27814;53.452;-6.180;2023-02-03T13:29:03;14.60;99.90
41816;DHT22;27814;53.452;-6.180;2023-02-03T13:31:42;14.50;99.90
41816;DHT22;27814;53.452;-6.180;2023-02-03T13:34:33;14.50;99.90
41816;DHT22;27814;53.452;-6.180;2023-02-03T13:40:14;14.50;99.90
41816;DHT22;27814;53.452;-6.180;2023-02-03T13:42:46;14.50;99.90
41816;DHT22;27814;53.452;-6.180;2023-02-03T13:45:24;14.40;99.90
41816;DHT22;27814;53.452;-6.180;2023-02-03T13:47:55;14.40;99.90
41816;DHT22;27814;53.452;-6.180;2023-02-03T13:50:27;14.40;99.90
41816;DHT22;27814;53.452;-6.180;2023-02-03T13:52:59;14.40;99.90
41816;DHT22;27814;53.452;-6.180;2023-02-03T13:55:34;14.40;99.90
41816;DHT22;27814;53.452;-6.180;2023-02-03T13:58:04;14.50;99.90
41816;DHT22;27814;53.452;-6.180;2023-02-03T14:01:00;14.50;99.90
41816;DHT22;27814;53.452;-6.180;2023-02-03T14:03:43;14.60;99.90
41816;DHT22;27814;53.452;-6.180;2023-02-03T14:09:40;14.80;99.90
41816;DHT22;27814;53.452;-6.180;2023-02-03T14:12:31;15.00;99.90
41816;DHT22;27814;53.452;-6.180;2023-02-03T14:20:50;15.00;99.90
41816;DHT22;27814;53.452;-6.180;2023-02-03T14:23:26;15.00;99.90
41816;DHT22;27814;53.452;-6.180;2023-02-03T14:25:59;15.00;99.90
41816;DHT22;27814;53.452;-6.180;2023-02-03T14:28:36;15.00;99.90
41816;DHT22;27814;53.452;-6.180;2023-02-03T14:31:17;15.10;99.90
41816;DHT22;27814;53.452;-6.180;2023-02-03T14:34:08;15.10;99.90
41816;DHT22;27814;53.452;-6.180;2023-02-03T14:36:48;15.20;99.90
41816;DHT22;27814;53.452;-6.180;2023-02-03T14:39:50;15.20;99.90
41816;DHT22;27814;53.452;-6.180;2023-02-03T14:43:04;15.20;99.90
41816;DHT22;27814;53.452;-6.180;2023-02-03T14:48:49;15.10;99.90
41816;DHT22;27814;53.452;-6.180;2023-02-03T14:51:30;15.00;99.90
41816;DHT22;27814;53.452;-6.180;2023-02-03T14:54:14;14.90;99.90
41816;DHT22;27814;53.452;-6.180;2023-02-03T14:56:52;14.90;99.90
41816;DHT22;27814;53.452;-6.180;2023-02-03T14:59:43;14.90;99.90
41816;DHT22;27814;53.452;-6.180;2023-02-03T15:02:16;14.90;99.90
41816;DHT22;27814;53.452;-6.180;2023-02-03T15:04:46;14.90;99.90
41816;DHT22;27814;53.452;-6.180;2023-02-03T15:07:35;14.90;99.90
41816;DHT22;27814;53.452;-6.180;2023-02-03T15:10:12;14.80;99.90
41816;DHT22;27814;53.452;-6.180;2023-02-03T15:12:44;14.80;99.90
41816;DHT22;27814;53.452;-6.180;2023-02-03T15:15:18;14.90;99.90
41816;DHT22;27814;53.452;-6.180;2023-02-03T15:17:48;14.90;99.90
41816;DHT22;27814;53.452;-6.180;2023-02-03T15:20:34;14.90;99.90
41816;DHT22;27814;53.452;-6.180;2023-02-03T15:23:18;14.90;99.90
41816;DHT22;27814;53.452;-6.180;2023-02-03T15:25:52;14.90;99.90
41816;DHT22;27814;53.452;-6.180;2023-02-03T15:28:22;14.90;99.90
41816;DHT22;27814;53.452;-6.180;2023-02-03T15:30:56;14.90;99.90
41816;DHT22;27814;53.452;-6.180;2023-02-03T15:33:26;14.90;99.90
41816;DHT22;27814;53.452;-6.180;2023-02-03T15:36:00;14.90;99.90
41816;DHT22;27814;53.452;-6.180;2023-02-03T15:38:34;14.90;99.90
41816;DHT22;27814;53.452;-6.180;2023-02-03T15:41:06;14.90;99.90
41816;DHT22;27814;53.452;-6.180;2023-02-03T15:43:38;14.90;99.90
41816;DHT22;27814;53.452;-6.180;2023-02-03T15:46:13;14.90;99.90
41816;DHT22;27814;53.452;-6.180;2023-02-03T15:48:48;14.80;99.90
41816;DHT22;27814;53.452;-6.180;2023-02-03T15:51:19;14.80;99.90
41816;DHT22;27814;53.452;-6.180;2023-02-03T15:53:53;14.80;99.90
41816;DHT22;27814;53.452;-6.180;2023-02-03T15:56:29;14.80;99.90
41816;DHT22;27814;53.452;-6.180;2023-02-03T15:59:02;14.70;99.90
41816;DHT22;27814;53.452;-6.180;2023-02-03T16:01:32;14.70;99.90
41816;DHT22;27814;53.452;-6.180;2023-02-03T16:04:01;14.70;99.90
41816;DHT22;27814;53.452;-6.180;2023-02-03T16:06:37;14.70;99.90
41816;DHT22;27814;53.452;-6.180;2023-02-03T16:09:26;14.70;99.90
41816;DHT22;27814;53.452;-6.180;2023-02-03T16:12:13;14.70;99.90
41816;DHT22;27814;53.452;-6.180;2023-02-03T16:14:43;14.70;99.90
41816;DHT22;27814;53.452;-6.180;2023-02-03T16:17:22;14.70;99.90